createdAt,value
2019-01-11T00:01:46.097Z,29.10
2019-01-11T00:04:14.899Z,28.67
2019-01-11T00:06:43.682Z,31.43
2019-01-11T00:09:12.519Z,31.13
2019-01-11T00:11:41.331Z,29.33
2019-01-11T00:14:10.129Z,29.90
2019-01-11T00:16:39.086Z,30.77
2019-01-11T00:19:07.902Z,32.00
2019-01-11T00:21:36.789Z,31.07
2019-01-11T00:24:06.220Z,33.73
2019-01-11T00:26:35.795Z,29.93
2019-01-11T00:29:04.659Z,34.93
2019-01-11T00:31:33.455Z,40.23
2019-01-11T00:34:02.292Z,37.50
2019-01-11T00:36:31.252Z,34.27
2019-01-11T00:39:00.484Z,32.63
2019-01-11T00:41:29.337Z,36.67
2019-01-11T00:43:58.187Z,36.73
2019-01-11T00:46:26.970Z,36.23
2019-01-11T00:48:55.777Z,34.97
2019-01-11T00:51:24.607Z,35.97
2019-01-11T00:53:53.391Z,36.17
2019-01-11T00:56:22.272Z,36.57
2019-01-11T00:58:51.175Z,34.90
2019-01-11T01:01:19.994Z,36.23
2019-01-11T01:03:49.663Z,39.73
2019-01-11T01:06:18.508Z,40.13
2019-01-11T01:08:47.376Z,39.97
2019-01-11T01:11:16.188Z,41.70
2019-01-11T01:13:44.970Z,40.27
2019-01-11T01:16:13.763Z,45.20
2019-01-11T01:18:43.409Z,39.60
2019-01-11T01:21:12.198Z,42.63
2019-01-11T01:23:41.002Z,42.87
2019-01-11T01:26:09.790Z,40.20
2019-01-11T01:28:38.607Z,42.13
2019-01-11T01:31:07.427Z,41.33
2019-01-11T01:33:36.247Z,42.57
2019-01-11T01:36:05.043Z,41.70
2019-01-11T01:38:33.830Z,42.30
2019-01-11T01:41:02.620Z,43.67
2019-01-11T01:43:32.075Z,41.60
2019-01-11T01:46:00.872Z,46.27
2019-01-11T01:48:29.659Z,41.73
2019-01-11T01:50:58.439Z,38.93
2019-01-11T01:53:27.943Z,42.17
2019-01-11T01:55:57.544Z,41.87
2019-01-11T01:58:26.989Z,44.67
2019-01-11T02:00:55.762Z,41.07
2019-01-11T02:03:24.551Z,42.73
2019-01-11T02:05:54.843Z,36.33
2019-01-11T02:08:23.635Z,40.00
2019-01-11T02:10:52.453Z,36.20
2019-01-11T02:13:21.275Z,38.93
2019-01-11T02:15:50.066Z,37.53
2019-01-11T02:18:19.480Z,36.67
2019-01-11T02:20:48.280Z,38.37
2019-01-11T02:23:17.128Z,36.77
2019-01-11T02:25:46.245Z,35.70
2019-01-11T02:28:14.710Z,37.63
2019-01-11T02:30:43.578Z,38.23
2019-01-11T02:33:12.374Z,36.13
2019-01-11T02:35:42.056Z,36.80
2019-01-11T02:38:10.843Z,38.17
2019-01-11T02:40:39.618Z,37.90
2019-01-11T02:43:08.486Z,40.30
2019-01-11T02:45:37.276Z,38.20
2019-01-11T02:48:06.091Z,38.30
2019-01-11T02:50:34.921Z,41.30
2019-01-11T02:53:03.715Z,37.83
2019-01-11T02:55:32.672Z,38.57
2019-01-11T02:58:01.450Z,41.43
2019-01-11T03:00:30.255Z,38.87
2019-01-11T03:02:59.103Z,43.17
2019-01-11T03:05:27.900Z,38.73
2019-01-11T03:07:58.070Z,36.10
2019-01-11T03:10:26.852Z,40.17
2019-01-11T03:12:55.719Z,37.67
2019-01-11T03:15:24.694Z,38.47
2019-01-11T03:17:53.499Z,39.20
2019-01-11T03:20:22.430Z,36.90
2019-01-11T03:22:51.225Z,39.43
2019-01-11T03:25:20.003Z,37.47
2019-01-11T03:27:48.882Z,38.17
2019-01-11T03:30:19.536Z,38.03
2019-01-11T03:32:48.364Z,39.50
2019-01-11T03:35:21.173Z,39.40
2019-01-11T03:37:50.937Z,37.83
2019-01-11T03:40:23.078Z,39.17
2019-01-11T03:42:51.884Z,38.77
2019-01-11T03:45:22.042Z,38.57
2019-01-11T03:47:51.386Z,39.17
2019-01-11T03:50:20.258Z,40.67
2019-01-11T03:52:49.029Z,38.90
2019-01-11T03:55:18.063Z,41.67
2019-01-11T03:57:48.631Z,42.17
2019-01-11T04:00:21.842Z,37.27
2019-01-11T04:02:50.651Z,39.67
2019-01-11T04:05:19.463Z,41.00
2019-01-11T04:07:48.357Z,34.90
2019-01-11T04:10:19.081Z,39.87
2019-01-11T04:12:47.863Z,37.60
2019-01-11T04:15:17.177Z,38.87
2019-01-11T04:17:46.591Z,41.70
2019-01-11T04:20:17.217Z,37.00
2019-01-11T04:22:50.196Z,37.63
2019-01-11T04:25:24.674Z,39.47
2019-01-11T04:27:53.521Z,39.50
2019-01-11T04:30:22.626Z,40.77
2019-01-11T04:32:52.372Z,40.63
2019-01-11T04:35:21.176Z,45.63
2019-01-11T04:37:49.988Z,41.33
2019-01-11T04:40:19.058Z,41.43
2019-01-11T04:42:47.843Z,37.07
2019-01-11T04:45:16.658Z,39.43
2019-01-11T04:47:45.502Z,32.00
2019-01-11T04:50:17.311Z,35.97
2019-01-11T04:52:46.330Z,35.57
2019-01-11T04:55:15.058Z,36.50
2019-01-11T04:57:43.931Z,35.73
2019-01-11T05:00:15.859Z,35.07
2019-01-11T05:02:44.714Z,35.70
2019-01-11T05:05:13.531Z,34.77
2019-01-11T05:07:42.322Z,36.10
2019-01-11T05:10:12.023Z,35.37
2019-01-11T05:12:40.973Z,34.97
2019-01-11T05:15:09.771Z,35.30
2019-01-11T05:17:38.621Z,35.50
2019-01-11T05:20:16.418Z,37.07
2019-01-11T05:22:39.219Z,39.27
2019-01-11T05:25:08.333Z,39.30
2019-01-11T05:27:37.190Z,38.20
2019-01-11T05:30:09.217Z,36.33
2019-01-11T05:32:38.032Z,38.50
2019-01-11T05:35:07.143Z,38.47
2019-01-11T05:37:35.935Z,36.90
2019-01-11T05:40:06.911Z,34.87
2019-01-11T05:42:35.999Z,37.10
2019-01-11T05:45:04.972Z,37.97
2019-01-11T05:47:33.753Z,37.77
2019-01-11T05:50:02.587Z,37.53
2019-01-11T05:52:31.376Z,36.00
2019-01-11T05:55:00.271Z,37.13
2019-01-11T05:57:29.133Z,36.90
2019-01-11T05:59:57.934Z,32.23
2019-01-11T06:02:26.746Z,33.43
2019-01-11T06:04:59.797Z,35.50
2019-01-11T06:07:49.730Z,34.17
2019-01-11T06:10:18.546Z,32.57
2019-01-11T06:12:47.348Z,33.63
2019-01-11T06:15:16.186Z,37.43
2019-01-11T06:17:46.034Z,30.93
2019-01-11T06:20:15.959Z,32.37
2019-01-11T06:22:44.860Z,30.33
2019-01-11T06:25:13.697Z,33.17
2019-01-11T06:27:42.470Z,32.03
2019-01-11T06:30:12.771Z,30.20
2019-01-11T06:32:42.219Z,32.17
2019-01-11T06:35:11.002Z,34.83
2019-01-11T06:37:39.830Z,30.77
2019-01-11T06:40:08.903Z,30.20
2019-01-11T06:42:37.836Z,29.47
2019-01-11T06:45:08.048Z,27.03
2019-01-11T06:47:36.921Z,25.90
2019-01-11T06:50:08.827Z,25.23
2019-01-11T06:52:38.091Z,34.33
2019-01-11T06:55:06.919Z,28.10
2019-01-11T06:57:35.715Z,27.13
2019-01-11T07:00:07.942Z,29.97
2019-01-11T07:02:37.655Z,27.63
2019-01-11T07:05:07.675Z,28.80
2019-01-11T07:07:36.994Z,25.80
2019-01-11T07:10:09.155Z,24.57
2019-01-11T07:12:37.973Z,24.27
2019-01-11T07:15:07.515Z,26.20
2019-01-11T07:17:36.335Z,24.17
2019-01-11T07:20:05.982Z,25.07
2019-01-11T07:22:34.699Z,23.90
2019-01-11T07:25:03.586Z,23.40
2019-01-11T07:27:36.305Z,29.27
2019-01-11T07:30:05.587Z,26.93
2019-01-11T07:32:34.393Z,28.43
2019-01-11T07:35:03.250Z,26.53
2019-01-11T07:37:32.194Z,27.57
2019-01-11T07:40:01.071Z,23.13
2019-01-11T07:42:29.872Z,23.60
2019-01-11T07:44:58.676Z,24.63
2019-01-11T07:47:27.502Z,26.00
2019-01-11T07:49:56.440Z,26.37
2019-01-11T07:52:25.229Z,25.73
2019-01-11T07:54:53.979Z,25.70
2019-01-11T07:57:22.778Z,24.23
2019-01-11T07:59:51.679Z,23.63
2019-01-11T08:02:20.480Z,24.97
2019-01-11T08:04:49.349Z,25.40
2019-01-11T08:07:18.288Z,22.60
2019-01-11T08:09:47.119Z,21.80
2019-01-11T08:12:16.064Z,24.90
2019-01-11T08:14:44.839Z,21.83
2019-01-11T08:17:13.722Z,22.03
2019-01-11T08:19:42.512Z,23.53
2019-01-11T08:22:15.617Z,20.83
2019-01-11T08:24:48.275Z,19.80
2019-01-11T08:27:17.124Z,20.67
2019-01-11T08:29:45.950Z,19.97
2019-01-11T08:32:14.797Z,17.43
2019-01-11T08:34:43.643Z,20.77
2019-01-11T08:37:12.511Z,19.17
2019-01-11T08:39:41.406Z,16.47
2019-01-11T08:42:10.207Z,16.47
2019-01-11T08:44:39.068Z,16.60
2019-01-11T08:47:07.912Z,17.00
2019-01-11T08:49:36.761Z,17.83
2019-01-11T08:52:05.565Z,18.27
2019-01-11T08:54:34.367Z,19.27
2019-01-11T08:57:03.235Z,19.43
2019-01-11T08:59:32.169Z,18.10
2019-01-11T09:02:00.964Z,19.43
2019-01-11T09:04:29.756Z,17.97
2019-01-11T09:06:58.649Z,21.27
2019-01-11T09:09:27.501Z,18.60
2019-01-11T09:11:56.407Z,18.10
2019-01-11T09:14:33.339Z,17.17
2019-01-11T09:17:02.157Z,16.77
2019-01-11T09:19:31.018Z,18.27
2019-01-11T09:21:59.807Z,15.63
2019-01-11T09:24:28.619Z,18.10
2019-01-11T09:26:57.383Z,15.67
2019-01-11T09:29:26.212Z,16.63
2019-01-11T09:31:55.067Z,15.57
2019-01-11T09:34:23.874Z,15.67
2019-01-11T09:36:52.661Z,16.77
2019-01-11T09:39:21.455Z,16.23
2019-01-11T09:41:50.240Z,15.70
2019-01-11T09:44:19.112Z,16.27
2019-01-11T09:46:47.919Z,14.83
2019-01-11T09:49:16.781Z,15.03
2019-01-11T09:51:45.663Z,14.57
2019-01-11T09:54:14.629Z,15.53
2019-01-11T09:56:43.643Z,14.43
2019-01-11T09:59:12.563Z,14.20
2019-01-11T10:01:41.352Z,12.73
2019-01-11T10:04:12.158Z,12.53
2019-01-11T10:06:45.191Z,13.20
2019-01-11T10:09:13.982Z,13.60
2019-01-11T10:11:42.864Z,13.10
2019-01-11T10:14:11.750Z,12.17
2019-01-11T10:16:40.559Z,10.57
2019-01-11T10:19:09.407Z,11.47
2019-01-11T10:21:38.235Z,10.40
2019-01-11T10:24:07.017Z,8.93
2019-01-11T10:26:35.875Z,9.00
2019-01-11T10:29:04.704Z,9.40
2019-01-11T10:31:33.483Z,7.57
2019-01-11T10:34:02.338Z,7.60
2019-01-11T10:36:31.734Z,8.23
2019-01-11T10:39:00.515Z,7.50
2019-01-11T10:41:29.305Z,7.43
2019-01-11T10:43:58.130Z,7.30
2019-01-11T10:46:32.433Z,7.80
2019-01-11T10:49:01.199Z,7.47
2019-01-11T10:51:30.087Z,7.37
2019-01-11T10:53:58.835Z,7.37
2019-01-11T10:56:27.658Z,7.13
2019-01-11T10:58:56.512Z,6.43
2019-01-11T11:01:25.408Z,6.63
2019-01-11T11:03:54.280Z,5.57
2019-01-11T11:06:23.166Z,4.97
2019-01-11T11:08:51.958Z,5.00
2019-01-11T11:11:20.755Z,4.97
2019-01-11T11:13:50.344Z,4.90
2019-01-11T11:16:19.145Z,4.03
2019-01-11T11:18:47.940Z,4.50
2019-01-11T11:21:16.791Z,4.23
2019-01-11T11:23:45.654Z,4.73
2019-01-11T11:26:14.467Z,4.60
2019-01-11T11:28:43.353Z,5.47
2019-01-11T11:31:12.151Z,5.27
2019-01-11T11:33:43.991Z,4.57
2019-01-11T11:36:12.925Z,5.17
2019-01-11T11:38:41.711Z,5.60
2019-01-11T11:41:10.508Z,5.40
2019-01-11T11:43:39.384Z,4.57
2019-01-11T11:46:08.206Z,5.63
2019-01-11T11:48:36.988Z,5.53
2019-01-11T11:51:05.853Z,5.77
2019-01-11T11:53:34.690Z,5.00
2019-01-11T11:56:03.508Z,5.03
2019-01-11T11:58:39.970Z,5.33
2019-01-11T12:01:08.791Z,4.90
2019-01-11T12:03:37.670Z,3.90
2019-01-11T12:06:06.475Z,4.80
2019-01-11T12:08:35.328Z,4.27
2019-01-11T12:11:04.128Z,4.17
2019-01-11T12:13:34.602Z,4.73
2019-01-11T12:16:01.777Z,4.30
2019-01-11T12:18:30.688Z,4.00
2019-01-11T12:20:59.474Z,3.83
2019-01-11T12:23:28.312Z,3.83
2019-01-11T12:25:57.170Z,4.57
2019-01-11T12:28:25.987Z,3.90
2019-01-11T12:30:54.767Z,5.07
2019-01-11T12:33:23.626Z,4.20
2019-01-11T12:35:52.476Z,4.30
2019-01-11T12:38:21.297Z,4.60
2019-01-11T12:40:50.128Z,4.30
2019-01-11T12:43:18.992Z,4.03
2019-01-11T12:45:47.922Z,3.50
2019-01-11T12:48:16.703Z,3.40
2019-01-11T12:50:45.564Z,3.30
2019-01-11T12:53:27.967Z,2.87
2019-01-11T12:55:56.743Z,2.80
2019-01-11T12:58:25.591Z,2.47
2019-01-11T13:00:54.395Z,2.87
2019-01-11T13:03:23.244Z,2.67
2019-01-11T13:05:52.038Z,2.83
2019-01-11T13:08:20.904Z,2.70
2019-01-11T13:10:50.434Z,2.37
2019-01-11T13:13:19.233Z,2.60
2019-01-11T13:15:48.059Z,2.27
2019-01-11T13:18:16.827Z,2.17
2019-01-11T13:20:45.629Z,2.53
2019-01-11T13:23:14.455Z,2.20
2019-01-11T13:25:43.239Z,2.30
2019-01-11T13:28:12.082Z,2.70
2019-01-11T13:30:40.867Z,2.00
2019-01-11T13:33:09.639Z,1.60
2019-01-11T13:35:38.496Z,2.30
2019-01-11T13:38:07.311Z,3.50
2019-01-11T13:40:36.698Z,1.43
2019-01-11T13:43:05.487Z,1.97
2019-01-11T13:45:34.327Z,1.83
2019-01-11T13:48:03.641Z,1.90
2019-01-11T13:50:36.372Z,1.67
2019-01-11T13:53:06.503Z,1.70
2019-01-11T13:55:35.284Z,1.80
2019-01-11T13:58:04.103Z,1.90
2019-01-11T14:00:32.935Z,1.53
2019-01-11T14:03:01.786Z,1.67
2019-01-11T14:05:30.667Z,1.73
2019-01-11T14:07:59.609Z,1.80
2019-01-11T14:10:28.962Z,1.53
2019-01-11T14:12:57.943Z,1.80
2019-01-11T14:15:26.984Z,2.10
2019-01-11T14:17:55.730Z,2.37
2019-01-11T14:20:24.616Z,2.67
2019-01-11T14:22:53.395Z,3.07
2019-01-11T14:25:22.234Z,3.10
2019-01-11T14:27:51.126Z,3.47
2019-01-11T14:30:19.938Z,3.20
2019-01-11T14:32:48.944Z,2.67
2019-01-11T14:35:18.307Z,2.90
2019-01-11T14:37:47.184Z,3.40
2019-01-11T14:40:16.083Z,2.53
2019-01-11T14:42:44.887Z,4.13
2019-01-11T14:45:14.923Z,3.03
2019-01-11T14:47:43.739Z,3.40
2019-01-11T14:50:14.758Z,3.70
2019-01-11T14:52:43.607Z,3.40
2019-01-11T14:55:12.401Z,3.60
2019-01-11T14:57:41.180Z,4.93
2019-01-11T15:00:13.892Z,5.20
2019-01-11T15:02:42.715Z,4.40
2019-01-11T15:05:12.281Z,6.30
2019-01-11T15:07:41.189Z,5.77
2019-01-11T15:10:11.413Z,6.33
2019-01-11T15:12:40.272Z,5.80
2019-01-11T15:15:09.174Z,6.83
2019-01-11T15:17:37.933Z,6.57
2019-01-11T15:20:09.032Z,6.50
2019-01-11T15:22:37.849Z,5.40
2019-01-11T15:25:07.647Z,4.50
2019-01-11T15:27:36.541Z,5.50
2019-01-11T15:30:06.660Z,4.27
2019-01-11T15:32:35.449Z,4.90
2019-01-11T15:35:04.819Z,4.10
2019-01-11T15:37:33.598Z,4.13
2019-01-11T15:40:02.428Z,4.77
2019-01-11T15:42:31.335Z,4.60
2019-01-11T15:45:00.220Z,4.13
2019-01-11T15:47:29.025Z,4.40
2019-01-11T15:49:57.804Z,4.00
2019-01-11T15:52:33.115Z,4.17
2019-01-11T15:54:55.600Z,3.73
2019-01-11T15:57:28.530Z,2.93
2019-01-11T16:00:00.372Z,3.10
2019-01-11T16:02:29.175Z,4.20
2019-01-11T16:05:00.231Z,3.57
2019-01-11T16:07:29.714Z,3.80
2019-01-11T16:10:03.342Z,3.77
2019-01-11T16:12:35.566Z,3.90
2019-01-11T16:17:18.887Z,4.33
2019-01-11T16:19:47.665Z,2.83
2019-01-11T16:22:16.459Z,3.87
2019-01-11T16:24:45.247Z,3.27
2019-01-11T16:27:14.086Z,3.87
2019-01-11T16:29:42.904Z,4.50
2019-01-11T16:32:11.716Z,3.23
2019-01-11T16:34:40.660Z,2.87
2019-01-11T16:37:09.455Z,3.73
2019-01-11T16:39:38.235Z,3.40
2019-01-11T16:42:07.054Z,3.33
2019-01-11T16:44:36.642Z,2.83
2019-01-11T16:47:05.543Z,2.73
2019-01-11T16:49:34.318Z,3.63
2019-01-11T16:52:03.110Z,3.77
2019-01-11T16:54:31.966Z,3.50
2019-01-11T16:59:34.375Z,3.63
2019-01-11T17:02:03.159Z,3.30
2019-01-11T17:04:31.940Z,3.80
2019-01-11T17:07:00.743Z,3.03
2019-01-11T17:09:29.528Z,4.30
2019-01-11T17:11:58.317Z,5.00
2019-01-11T17:14:27.118Z,4.37
2019-01-11T17:16:55.971Z,4.30
2019-01-11T17:19:24.787Z,4.40
2019-01-11T17:21:53.618Z,5.17
2019-01-11T17:24:22.483Z,4.67
2019-01-11T17:26:51.255Z,4.43
2019-01-11T17:29:20.165Z,4.93
2019-01-11T17:31:48.960Z,4.90
2019-01-11T17:34:17.755Z,5.03
2019-01-11T17:36:46.556Z,5.40
2019-01-11T17:39:15.338Z,4.50
2019-01-11T17:41:44.129Z,4.43
2019-01-11T17:44:12.998Z,4.07
2019-01-11T17:46:41.761Z,4.00
2019-01-11T17:49:10.572Z,5.10
2019-01-11T17:51:39.399Z,5.13
2019-01-11T17:54:08.183Z,4.27
2019-01-11T17:56:36.976Z,4.87
2019-01-11T17:59:05.761Z,4.70
2019-01-11T18:01:34.636Z,4.70
2019-01-11T18:04:04.143Z,4.20
2019-01-11T18:06:32.946Z,4.07
2019-01-11T18:09:01.807Z,5.40
2019-01-11T18:11:30.643Z,4.07
2019-01-11T18:13:59.530Z,4.57
2019-01-11T18:16:28.368Z,4.60
2019-01-11T18:18:57.145Z,4.77
2019-01-11T18:21:25.927Z,4.70
2019-01-11T18:23:54.762Z,5.10
2019-01-11T18:26:23.870Z,4.73
2019-01-11T18:28:52.667Z,4.70
2019-01-11T18:31:21.543Z,4.63
2019-01-11T18:33:50.643Z,4.93
2019-01-11T18:36:19.475Z,4.37
2019-01-11T18:38:48.324Z,4.10
2019-01-11T18:41:17.159Z,4.33
2019-01-11T18:43:46.266Z,4.50
2019-01-11T18:46:15.095Z,5.00
2019-01-11T18:48:43.997Z,5.30
2019-01-11T18:51:12.775Z,5.70
2019-01-11T18:53:41.721Z,8.50
2019-01-11T18:56:10.607Z,5.17
2019-01-11T18:58:39.446Z,4.40
2019-01-11T19:01:08.227Z,4.60
2019-01-11T19:03:37.065Z,4.80
2019-01-11T19:06:05.831Z,4.93
2019-01-11T19:08:34.686Z,4.50
2019-01-11T19:11:03.492Z,4.23
2019-01-11T19:13:32.250Z,4.23
2019-01-11T19:16:01.104Z,4.20
2019-01-11T19:18:29.953Z,4.93
2019-01-11T19:20:59.311Z,5.87
2019-01-11T19:23:28.118Z,5.07
2019-01-11T19:25:56.900Z,5.00
2019-01-11T19:28:25.776Z,7.53
2019-01-11T19:30:54.589Z,5.47
2019-01-11T19:33:23.487Z,3.83
2019-01-11T19:35:52.425Z,4.40
2019-01-11T19:38:22.355Z,4.70
2019-01-11T19:40:50.591Z,3.80
2019-01-11T19:43:19.441Z,4.30
2019-01-11T19:45:48.346Z,4.47
2019-01-11T19:48:17.236Z,4.57
2019-01-11T19:50:46.853Z,4.63
2019-01-11T19:53:15.803Z,4.43
2019-01-11T19:55:44.719Z,4.07
2019-01-11T19:58:13.542Z,4.80
2019-01-11T20:00:42.382Z,3.60
2019-01-11T20:03:11.147Z,4.63
2019-01-11T20:05:39.969Z,4.20
2019-01-11T20:08:09.670Z,5.87
2019-01-11T20:10:37.752Z,3.43
2019-01-11T20:13:06.545Z,4.63
2019-01-11T20:15:35.407Z,4.60
2019-01-11T20:18:04.353Z,5.07
2019-01-11T20:20:33.160Z,3.90
2019-01-11T20:23:02.800Z,4.17
2019-01-11T20:25:30.946Z,4.43
2019-01-11T20:27:59.792Z,4.17
2019-01-11T20:30:28.792Z,3.27
2019-01-11T20:32:57.664Z,4.23
2019-01-11T20:35:26.452Z,4.03
2019-01-11T20:37:55.278Z,3.80
2019-01-11T20:40:24.120Z,3.00
2019-01-11T20:42:53.002Z,3.27
2019-01-11T20:45:21.911Z,3.70
2019-01-11T20:47:50.704Z,5.90
2019-01-11T20:50:22.511Z,4.70
2019-01-11T20:52:51.329Z,5.87
2019-01-11T20:55:20.111Z,3.53
2019-01-11T20:57:48.944Z,4.20
2019-01-11T21:00:21.526Z,3.63
2019-01-11T21:02:50.382Z,3.47
2019-01-11T21:05:19.157Z,3.60
2019-01-11T21:07:48.028Z,3.97
2019-01-11T21:10:16.832Z,6.57
2019-01-11T21:12:45.683Z,6.03
2019-01-11T21:15:14.874Z,4.47
2019-01-11T21:17:43.687Z,4.80
2019-01-11T21:20:13.875Z,4.57
2019-01-11T21:22:42.757Z,4.70
2019-01-11T21:25:12.377Z,4.57
2019-01-11T21:27:41.181Z,4.10
2019-01-11T21:30:14.880Z,3.93
2019-01-11T21:32:43.661Z,3.87
2019-01-11T21:35:12.472Z,3.70
2019-01-11T21:37:41.230Z,3.97
2019-01-11T21:40:11.906Z,3.73
2019-01-11T21:42:40.723Z,3.60
2019-01-11T21:45:09.616Z,3.73
2019-01-11T21:47:38.359Z,4.20
2019-01-11T21:50:10.804Z,3.77
2019-01-11T21:52:39.581Z,3.93
2019-01-11T21:55:10.124Z,3.27
2019-01-11T21:57:38.978Z,3.30
2019-01-11T22:00:12.233Z,3.30
2019-01-11T22:02:41.065Z,3.83
2019-01-11T22:05:09.959Z,3.57
2019-01-11T22:07:38.745Z,4.20
2019-01-11T22:10:09.400Z,3.57
2019-01-11T22:12:38.187Z,4.17
2019-01-11T22:15:08.132Z,3.50
2019-01-11T22:17:36.908Z,3.93
2019-01-11T22:20:07.932Z,4.27
2019-01-11T22:22:36.754Z,5.00
2019-01-11T22:25:06.428Z,5.20
2019-01-11T22:27:35.216Z,5.33
2019-01-11T22:30:05.221Z,5.57
2019-01-11T22:32:34.003Z,5.67
2019-01-11T22:35:02.804Z,4.80
2019-01-11T22:37:31.647Z,4.77
2019-01-11T22:40:00.572Z,3.93
2019-01-11T22:42:29.248Z,4.80
2019-01-11T22:44:58.035Z,5.27
2019-01-11T22:47:26.899Z,5.07
2019-01-11T22:49:55.756Z,4.50
2019-01-11T22:52:24.705Z,5.27
2019-01-11T22:54:53.507Z,5.00
2019-01-11T22:57:22.340Z,3.97
2019-01-11T22:59:51.212Z,3.77
2019-01-11T23:02:33.291Z,3.27
2019-01-11T23:05:02.163Z,3.67
2019-01-11T23:07:40.484Z,3.27
2019-01-11T23:12:28.654Z,3.67
2019-01-11T23:14:57.478Z,4.00
2019-01-11T23:17:58.995Z,4.53
2019-01-11T23:20:27.814Z,4.47
2019-01-11T23:22:56.756Z,4.33
2019-01-11T23:25:25.523Z,3.40
2019-01-11T23:27:54.454Z,3.40
2019-01-11T23:30:23.306Z,3.33
2019-01-11T23:32:52.119Z,3.30
2019-01-11T23:35:20.942Z,3.50
2019-01-11T23:37:49.710Z,3.47
2019-01-11T23:40:18.588Z,3.90
2019-01-11T23:42:47.412Z,3.70
2019-01-11T23:45:16.254Z,4.03
2019-01-11T23:47:45.138Z,3.60
2019-01-11T23:50:16.115Z,3.53
2019-01-11T23:52:44.931Z,4.33
2019-01-11T23:55:13.745Z,4.30
2019-01-11T23:57:42.523Z,4.43
